Time;durP1;ratioP1;P1;durP2;ratioP2;P2;SDS_P1;SDS_P2;PMS_P1;PMS_P2;Temp;Humidity;BMP_temperature;BMP_pressure;BME280_temperature;BME280_humidity;BME280_pressure;Samples;Min_cycle;Max_cycle;Signal;HPM_P1;HPM_P2
2022/04/16 00:01:53;;;;;;;15.02;11.85;;;10.40;99.90;;;;;;5107793;28;20154;-81
2022/04/16 00:04:19;;;;;;;16.17;11.73;;;10.40;99.90;;;;;;5106830;28;20205;-79
2022/04/16 00:06:45;;;;;;;14.75;13.07;;;10.40;99.90;;;;;;5106364;28;20221;-79
2022/04/16 00:09:11;;;;;;;14.75;12.00;;;10.30;99.90;;;;;;5106956;28;20189;-78
2022/04/16 00:11:37;;;;;;;16.20;11.75;;;10.30;99.90;;;;;;5107019;28;20200;-78
2022/04/16 00:14:03;;;;;;;18.42;13.18;;;10.40;99.90;;;;;;5107288;28;20202;-81
2022/04/16 00:16:29;;;;;;;15.00;12.57;;;10.30;99.90;;;;;;5100118;28;20166;-83
2022/04/16 00:18:57;;;;;;;13.57;12.13;;;10.20;99.90;;;;;;5095373;28;20181;-78
2022/04/16 00:21:24;;;;;;;15.70;12.77;;;10.30;99.90;;;;;;5096213;28;20158;-80
2022/04/16 00:23:50;;;;;;;14.07;11.68;;;10.40;99.90;;;;;;5096131;28;20189;-79
2022/04/16 00:26:16;;;;;;;14.15;12.60;;;10.40;99.90;;;;;;5096174;28;20165;-81
2022/04/16 00:28:41;;;;;;;18.00;12.43;;;10.30;99.90;;;;;;5095841;28;20162;-81
2022/04/16 00:31:07;;;;;;;18.80;13.20;;;10.40;99.90;;;;;;5095836;28;20525;-83
2022/04/16 00:33:33;;;;;;;18.98;12.32;;;10.30;99.90;;;;;;5094698;28;20788;-83
2022/04/16 00:36:02;;;;;;;18.40;12.65;;;10.30;99.90;;;;;;5094737;28;20637;-81
2022/04/16 00:38:27;;;;;;;19.10;13.43;;;10.20;99.90;;;;;;5095678;28;20166;-84
2022/04/16 00:40:53;;;;;;;17.35;13.95;;;10.20;99.90;;;;;;5095462;28;20238;-78
2022/04/16 00:43:23;;;;;;;20.58;12.85;;;10.20;99.90;;;;;;5094970;28;20642;-81
2022/04/16 00:45:49;;;;;;;24.90;14.43;;;10.00;99.90;;;;;;5095544;28;20697;-78
2022/04/16 00:48:14;;;;;;;18.33;13.45;;;9.90;99.90;;;;;;5095335;28;20166;-77
2022/04/16 00:50:40;;;;;;;24.27;14.38;;;10.00;99.90;;;;;;5095285;28;20165;-79
2022/04/16 00:53:06;;;;;;;18.15;13.85;;;10.00;99.90;;;;;;5095379;28;20201;-81
2022/04/16 00:55:37;;;;;;;17.88;12.93;;;10.00;99.90;;;;;;5095458;28;20184;-81
2022/04/16 00:58:03;;;;;;;23.95;15.88;;;10.00;99.90;;;;;;5103529;28;20249;-78
2022/04/16 01:00:29;;;;;;;19.52;14.07;;;10.00;99.90;;;;;;5114203;28;20181;-79
2022/04/16 01:02:57;;;;;;;19.42;13.30;;;9.70;99.90;;;;;;5105343;28;20188;-81
2022/04/16 01:05:24;;;;;;;21.70;14.55;;;9.60;99.90;;;;;;5095329;28;20521;-82
2022/04/16 01:07:57;;;;;;;17.33;12.82;;;9.70;99.90;;;;;;5094919;28;20223;-81
2022/04/16 01:10:26;;;;;;;21.27;13.68;;;9.90;99.90;;;;;;5095033;28;20162;-80
2022/04/16 01:12:56;;;;;;;18.65;14.00;;;9.80;99.90;;;;;;5095177;28;20213;-83
2022/04/16 01:15:23;;;;;;;19.20;13.38;;;9.70;99.90;;;;;;5094190;28;20529;-84
2022/04/16 01:17:49;;;;;;;21.77;15.35;;;9.80;99.90;;;;;;5095109;28;20645;-82
2022/04/16 01:20:16;;;;;;;19.88;14.73;;;9.60;99.90;;;;;;5094911;28;20162;-79
2022/04/16 01:22:46;;;;;;;17.67;14.20;;;9.70;99.90;;;;;;5094590;28;20648;-83
2022/04/16 01:25:12;;;;;;;25.73;14.63;;;9.70;99.90;;;;;;5094542;28;20177;-80
2022/04/16 01:27:43;;;;;;;19.30;13.52;;;9.80;99.90;;;;;;5094323;28;20166;-84
2022/04/16 01:30:09;;;;;;;18.30;13.80;;;9.80;99.90;;;;;;5093583;28;20196;-80
2022/04/16 01:32:36;;;;;;;21.15;14.38;;;9.70;99.90;;;;;;5093977;28;20208;-83
2022/04/16 01:35:05;;;;;;;16.48;13.93;;;9.70;99.90;;;;;;5093887;28;20182;-83
2022/04/16 01:37:34;;;;;;;21.50;14.82;;;9.80;99.90;;;;;;5094096;28;20653;-81
2022/04/16 01:40:01;;;;;;;18.35;13.32;;;9.70;99.90;;;;;;5092608;28;20178;-80
2022/04/16 01:42:32;;;;;;;23.75;14.75;;;9.70;99.90;;;;;;5094316;28;20177;-78
2022/04/16 01:45:00;;;;;;;17.50;14.43;;;9.60;99.90;;;;;;5093953;28;20193;-78
2022/04/16 01:47:28;;;;;;;17.45;13.85;;;9.50;99.90;;;;;;5093779;28;20173;-78
2022/04/16 01:50:00;;;;;;;23.48;14.93;;;9.60;99.90;;;;;;5093681;28;20166;-78
2022/04/16 01:52:26;;;;;;;18.13;14.13;;;9.60;99.90;;;;;;5093607;28;20292;-78
2022/04/16 01:54:52;;;;;;;19.42;13.85;;;9.60;99.90;;;;;;5093567;28;20185;-77
2022/04/16 01:57:18;;;;;;;20.10;14.27;;;9.40;99.90;;;;;;5093894;28;20231;-78
2022/04/16 01:59:47;;;;;;;20.88;14.35;;;9.60;99.90;;;;;;5093321;28;20222;-78
2022/04/16 02:02:14;;;;;;;17.25;12.70;;;9.60;99.90;;;;;;5093274;28;20169;-78
2022/04/16 02:04:39;;;;;;;20.25;14.63;;;9.70;99.90;;;;;;5092038;28;20217;-78
2022/04/16 02:07:06;;;;;;;22.50;14.77;;;9.80;99.90;;;;;;5103413;28;20216;-78
2022/04/16 02:09:35;;;;;;;18.35;14.20;;;9.70;99.90;;;;;;5103863;28;20164;-77
2022/04/16 02:12:00;;;;;;;19.05;15.07;;;9.60;99.90;;;;;;5103349;28;20165;-77
2022/04/16 02:14:26;;;;;;;19.65;14.52;;;9.30;99.90;;;;;;5100586;28;20189;-78
2022/04/16 02:16:52;;;;;;;24.85;14.07;;;9.30;99.90;;;;;;5102812;28;20254;-78
2022/04/16 02:19:17;;;;;;;24.35;14.55;;;9.40;99.90;;;;;;5094958;28;20214;-78
2022/04/16 02:21:45;;;;;;;19.98;14.80;;;9.40;99.90;;;;;;5092618;28;20613;-78
2022/04/16 02:24:13;;;;;;;16.55;13.75;;;9.50;99.90;;;;;;5092669;28;20214;-77
2022/04/16 02:26:42;;;;;;;22.20;14.00;;;9.40;99.90;;;;;;5093142;28;20546;-79
2022/04/16 02:29:10;;;;;;;19.20;14.63;;;9.40;99.90;;;;;;5092119;28;20165;-78
2022/04/16 02:31:37;;;;;;;17.50;15.07;;;9.30;99.90;;;;;;5092867;28;20169;-78
2022/04/16 02:34:05;;;;;;;28.90;16.15;;;9.20;99.90;;;;;;5093061;28;20557;-78
2022/04/16 02:36:31;;;;;;;19.48;13.95;;;9.10;99.90;;;;;;5092982;28;20507;-78
2022/04/16 02:38:57;;;;;;;19.00;14.45;;;9.20;99.90;;;;;;5092526;28;20521;-78
2022/04/16 02:41:23;;;;;;;20.17;14.55;;;9.20;99.90;;;;;;5092908;28;20158;-78
2022/04/16 02:43:49;;;;;;;19.80;14.75;;;9.20;99.90;;;;;;5091286;28;20193;-78
2022/04/16 02:49:00;;;;;;;25.55;14.82;;;9.30;99.90;;;;;;5092677;28;20663;-79
2022/04/16 02:51:26;;;;;;;20.13;14.27;;;9.30;99.90;;;;;;5092207;28;20162;-78
2022/04/16 02:53:52;;;;;;;21.45;15.00;;;9.20;99.90;;;;;;5093128;28;20685;-79
2022/04/16 02:56:18;;;;;;;24.65;15.13;;;9.20;99.90;;;;;;5092363;28;20165;-77
2022/04/16 02:58:44;;;;;;;24.25;16.15;;;9.10;99.90;;;;;;5092176;28;20205;-78
2022/04/16 03:01:09;;;;;;;21.85;14.90;;;9.10;99.90;;;;;;5092753;28;20170;-78
2022/04/16 03:03:35;;;;;;;23.13;15.68;;;9.00;99.90;;;;;;5092680;28;20553;-78
2022/04/16 03:06:00;;;;;;;22.65;14.77;;;9.00;99.90;;;;;;5092535;28;20216;-79
2022/04/16 03:08:26;;;;;;;20.67;14.70;;;8.90;99.90;;;;;;5092403;28;20158;-77
2022/04/16 03:10:52;;;;;;;21.27;14.80;;;9.00;99.90;;;;;;5092387;28;20170;-78
2022/04/16 03:13:18;;;;;;;26.27;15.63;;;9.20;99.90;;;;;;5091743;28;20244;-77
2022/04/16 03:18:29;;;;;;;23.15;16.23;;;9.10;99.90;;;;;;5091867;28;20230;-78
2022/04/16 03:20:54;;;;;;;20.25;14.68;;;9.00;99.90;;;;;;5092281;28;20165;-79
2022/04/16 03:23:20;;;;;;;21.13;14.68;;;9.00;99.90;;;;;;5091513;28;20213;-78
2022/04/16 03:25:48;;;;;;;18.48;14.50;;;9.00;99.90;;;;;;5092015;28;20223;-78
2022/04/16 03:28:14;;;;;;;21.52;15.27;;;8.90;99.90;;;;;;5091955;28;20181;-78
2022/04/16 03:30:39;;;;;;;25.13;16.83;;;9.00;99.90;;;;;;5091887;28;20215;-78
2022/04/16 03:33:05;;;;;;;26.60;16.77;;;8.70;99.90;;;;;;5092021;28;20703;-77
2022/04/16 03:35:30;;;;;;;23.27;16.40;;;8.60;99.90;;;;;;5095465;28;20166;-77
2022/04/16 03:37:56;;;;;;;23.38;16.15;;;8.50;99.90;;;;;;5096024;28;20158;-77
2022/04/16 03:40:26;;;;;;;23.85;15.68;;;8.60;99.90;;;;;;5096013;28;20166;-77
2022/04/16 03:42:54;;;;;;;24.58;16.02;;;8.60;99.90;;;;;;5096057;28;20168;-77
2022/04/16 03:45:25;;;;;;;29.17;16.58;;;8.60;99.90;;;;;;5095875;28;20173;-79
2022/04/16 03:47:52;;;;;;;22.98;15.02;;;8.60;99.90;;;;;;5096439;28;20249;-82
2022/04/16 03:50:19;;;;;;;28.77;18.10;;;8.50;99.90;;;;;;5096351;28;20574;-78
2022/04/16 03:52:46;;;;;;;27.33;16.25;;;8.60;99.90;;;;;;5096473;28;20209;-79
2022/04/16 04:00:56;;;;;;;27.13;16.83;;;8.60;99.90;;;;;;5096067;28;20180;-80
2022/04/16 04:03:22;;;;;;;24.33;17.40;;;8.60;99.90;;;;;;5095933;28;20190;-82
2022/04/16 04:05:49;;;;;;;27.20;17.70;;;8.60;99.90;;;;;;5095883;28;20180;-83
2022/04/16 04:08:16;;;;;;;23.80;16.42;;;8.60;99.90;;;;;;5095908;28;20162;-84
2022/04/16 04:10:42;;;;;;;25.85;17.40;;;8.50;99.90;;;;;;5095368;28;20166;-79
2022/04/16 04:13:08;;;;;;;27.60;16.92;;;8.60;99.90;;;;;;5095259;28;20284;-78
2022/04/16 04:15:34;;;;;;;25.42;18.50;;;8.60;99.90;;;;;;5095356;28;20186;-77
2022/04/16 04:18:00;;;;;;;24.00;17.40;;;8.60;99.90;;;;;;5095070;28;20621;-78
2022/04/16 04:20:27;;;;;;;25.10;17.23;;;8.60;99.90;;;;;;5094164;28;20177;-79
2022/04/16 04:22:52;;;;;;;26.05;17.35;;;8.70;99.90;;;;;;5095211;28;20223;-78
2022/04/16 04:25:18;;;;;;;24.77;18.25;;;8.60;99.90;;;;;;5095803;28;20656;-77
2022/04/16 04:27:47;;;;;;;27.58;17.42;;;8.70;99.90;;;;;;5103037;28;20158;-78
2022/04/16 04:30:13;;;;;;;24.35;17.75;;;8.80;99.90;;;;;;5097364;28;20170;-77
2022/04/16 04:32:38;;;;;;;29.45;18.40;;;8.90;99.90;;;;;;5103968;28;20846;-78
2022/04/16 04:35:06;;;;;;;32.28;18.50;;;9.00;99.90;;;;;;5099795;28;20172;-78
2022/04/16 04:37:32;;;;;;;30.38;17.88;;;8.90;99.90;;;;;;5099492;28;20247;-77
2022/04/16 04:39:58;;;;;;;33.08;18.27;;;8.80;99.90;;;;;;5102364;28;20614;-76
2022/04/16 04:42:24;;;;;;;29.13;18.85;;;8.70;99.90;;;;;;5097541;28;20177;-78
2022/04/16 04:44:50;;;;;;;26.23;18.23;;;8.70;99.90;;;;;;5094159;28;20284;-78
2022/04/16 04:47:16;;;;;;;29.20;17.60;;;8.60;99.90;;;;;;5094844;28;20245;-78
2022/04/16 04:49:42;;;;;;;27.95;18.83;;;8.70;99.90;;;;;;5094696;28;20166;-79
2022/04/16 04:52:08;;;;;;;32.38;17.48;;;8.70;99.90;;;;;;5094684;28;20241;-79
2022/04/16 04:54:33;;;;;;;31.17;19.85;;;8.70;99.90;;;;;;5094646;28;20604;-78
2022/04/16 04:56:59;;;;;;;28.13;18.33;;;8.50;99.90;;;;;;5094284;28;20585;-78
2022/04/16 04:59:24;;;;;;;28.65;19.05;;;8.60;99.90;;;;;;5094554;28;20162;-80
2022/04/16 05:01:50;;;;;;;32.25;18.40;;;8.50;99.90;;;;;;5093228;28;20165;-78
2022/04/16 05:04:16;;;;;;;29.75;18.90;;;8.80;99.90;;;;;;5094420;28;20193;-79
2022/04/16 05:06:42;;;;;;;26.05;17.83;;;8.80;99.90;;;;;;5094146;28;20173;-80
2022/04/16 05:09:07;;;;;;;26.75;18.23;;;8.90;99.90;;;;;;5094554;28;20166;-80
2022/04/16 05:11:33;;;;;;;26.77;17.52;;;8.80;99.90;;;;;;5094038;28;20193;-78
2022/04/16 05:13:58;;;;;;;30.15;18.45;;;8.70;99.90;;;;;;5093656;28;20262;-78
2022/04/16 05:16:24;;;;;;;30.63;19.08;;;8.60;99.90;;;;;;5093147;28;20642;-78
2022/04/16 05:18:50;;;;;;;26.40;19.25;;;8.70;99.90;;;;;;5094303;28;20693;-78
2022/04/16 05:21:16;;;;;;;26.60;18.45;;;8.90;99.90;;;;;;5094156;28;20691;-78
2022/04/16 05:23:41;;;;;;;24.02;17.15;;;8.80;99.90;;;;;;5094057;28;20186;-78
2022/04/16 05:26:08;;;;;;;26.70;19.35;;;8.80;99.90;;;;;;5092712;28;20565;-79
2022/04/16 05:28:34;;;;;;;28.70;19.50;;;9.10;99.90;;;;;;5094016;28;20169;-77
2022/04/16 05:31:01;;;;;;;30.70;17.38;;;9.10;99.90;;;;;;5092579;28;20593;-77
2022/04/16 05:36:11;;;;;;;26.42;18.67;;;9.20;99.90;;;;;;5093759;28;20188;-77
2022/04/16 05:38:37;;;;;;;26.23;19.38;;;9.10;99.90;;;;;;5093117;28;20626;-78
2022/04/16 05:41:02;;;;;;;28.65;19.50;;;9.10;99.90;;;;;;5093343;28;20243;-77
2022/04/16 05:43:28;;;;;;;28.00;18.17;;;9.20;99.90;;;;;;5093274;28;20208;-77
2022/04/16 05:45:54;;;;;;;27.58;19.35;;;9.10;99.90;;;;;;5093591;28;20176;-79
2022/04/16 05:48:19;;;;;;;28.45;18.83;;;9.00;99.90;;;;;;5093911;28;20200;-78
2022/04/16 05:50:46;;;;;;;28.92;18.77;;;9.10;99.90;;;;;;5093807;28;20579;-77
2022/04/16 05:53:13;;;;;;;31.23;20.20;;;9.30;99.90;;;;;;5093245;28;20197;-79
2022/04/16 05:55:41;;;;;;;27.17;19.50;;;9.20;99.90;;;;;;5092111;28;20165;-83
2022/04/16 05:58:07;;;;;;;36.85;20.60;;;9.40;99.90;;;;;;5092532;28;20178;-77
2022/04/16 06:00:33;;;;;;;30.05;19.75;;;9.50;99.90;;;;;;5093089;28;20233;-78
2022/04/16 06:02:59;;;;;;;28.08;20.45;;;9.30;99.90;;;;;;5093101;28;20190;-80
2022/04/16 06:05:25;;;;;;;35.22;20.40;;;9.20;99.90;;;;;;5093630;28;20256;-78
2022/04/16 06:07:50;;;;;;;34.97;20.27;;;9.30;99.90;;;;;;5091640;28;20170;-78
2022/04/16 06:10:16;;;;;;;29.33;20.20;;;9.50;99.90;;;;;;5093288;28;20248;-78
2022/04/16 06:12:42;;;;;;;28.50;19.23;;;9.60;99.90;;;;;;5093234;28;20212;-84
2022/04/16 06:15:08;;;;;;;29.17;19.67;;;9.50;99.90;;;;;;5093215;28;20657;-79
2022/04/16 06:17:34;;;;;;;36.42;21.15;;;9.50;99.90;;;;;;5091683;28;20565;-80
2022/04/16 06:20:00;;;;;;;34.47;19.95;;;9.60;99.90;;;;;;5093025;28;20193;-85
2022/04/16 06:22:26;;;;;;;31.42;20.98;;;9.60;99.90;;;;;;5091456;28;20270;-79
2022/04/16 06:24:51;;;;;;;31.70;20.33;;;9.50;99.90;;;;;;5092847;28;20578;-78
2022/04/16 06:27:17;;;;;;;25.92;19.45;;;9.40;99.90;;;;;;5093214;28;20174;-79
2022/04/16 06:29:43;;;;;;;29.58;20.05;;;9.40;99.90;;;;;;5092495;28;20533;-78
2022/04/16 06:32:08;;;;;;;27.63;18.60;;;9.60;99.90;;;;;;5092873;28;20244;-79
2022/04/16 06:34:34;;;;;;;33.33;21.67;;;9.60;99.90;;;;;;5092288;28;20202;-80
2022/04/16 06:36:59;;;;;;;30.60;19.48;;;9.60;99.90;;;;;;5093087;28;20169;-84
2022/04/16 06:39:26;;;;;;;30.98;20.73;;;9.70;99.90;;;;;;5093400;28;20577;-84
2022/04/16 06:41:51;;;;;;;34.33;17.80;;;9.70;99.90;;;;;;5093858;28;20190;-88
2022/04/16 06:44:17;;;;;;;29.92;19.58;;;9.80;99.90;;;;;;5094287;28;20193;-88
2022/04/16 06:46:43;;;;;;;26.92;20.05;;;9.90;99.90;;;;;;5094660;28;20169;-89
2022/04/16 06:49:08;;;;;;;37.63;19.55;;;10.10;99.90;;;;;;5094182;28;20162;-88
2022/04/16 06:51:34;;;;;;;29.15;20.50;;;10.00;99.90;;;;;;5094167;28;20166;-88
2022/04/16 06:54:00;;;;;;;29.80;20.33;;;10.10;99.90;;;;;;5094084;28;20213;-86
2022/04/16 06:56:25;;;;;;;34.55;21.27;;;10.20;99.90;;;;;;5089744;28;20165;-87
2022/04/16 06:58:51;;;;;;;24.90;19.10;;;10.40;99.90;;;;;;5088414;28;20231;-88
2022/04/16 07:01:16;;;;;;;29.25;19.70;;;10.70;99.90;;;;;;5074755;28;20708;-88
2022/04/16 07:03:42;;;;;;;31.35;19.13;;;10.80;99.90;;;;;;5075087;28;20198;-88
2022/04/16 07:06:07;;;;;;;34.25;20.80;;;10.90;99.90;;;;;;5094107;28;20173;-86
2022/04/16 07:08:33;;;;;;;27.45;18.67;;;10.80;99.90;;;;;;5081239;28;20167;-87
2022/04/16 07:10:59;;;;;;;25.58;17.98;;;10.90;99.90;;;;;;5073942;28;20166;-83
2022/04/16 07:13:25;;;;;;;24.60;18.17;;;10.80;99.90;;;;;;5073441;28;20210;-85
2022/04/16 07:15:50;;;;;;;29.20;18.80;;;10.80;99.90;;;;;;5072417;28;20174;-84
2022/04/16 07:18:16;;;;;;;27.00;18.83;;;10.80;99.90;;;;;;5080726;28;20220;-84
2022/04/16 07:20:42;;;;;;;28.48;19.13;;;11.00;99.90;;;;;;5071152;28;20581;-84
2022/04/16 07:23:08;;;;;;;23.00;17.13;;;10.90;99.90;;;;;;5070522;28;20209;-85
2022/04/16 07:25:34;;;;;;;29.73;18.02;;;10.90;99.90;;;;;;5071361;28;20211;-85
2022/04/16 07:28:00;;;;;;;24.75;17.50;;;10.90;99.90;;;;;;5070642;28;20171;-84
2022/04/16 07:30:27;;;;;;;21.42;17.10;;;11.10;99.90;;;;;;5074483;28;20205;-85
2022/04/16 07:32:53;;;;;;;23.75;16.02;;;11.10;99.90;;;;;;5074129;28;20194;-86
2022/04/16 07:35:19;;;;;;;24.30;16.58;;;11.30;99.90;;;;;;5072778;28;20526;-86
2022/04/16 07:37:46;;;;;;;20.63;15.50;;;11.30;99.90;;;;;;5071227;28;20162;-81
2022/04/16 07:40:12;;;;;;;21.88;17.05;;;11.50;99.90;;;;;;5072648;28;20170;-86
2022/04/16 07:42:38;;;;;;;21.05;17.40;;;11.50;99.90;;;;;;5072695;28;20175;-84
2022/04/16 07:45:04;;;;;;;23.25;15.95;;;11.60;99.90;;;;;;5072308;28;20604;-84
2022/04/16 07:47:30;;;;;;;23.45;16.02;;;11.70;99.90;;;;;;5071550;28;20171;-85
2022/04/16 07:49:56;;;;;;;21.10;16.52;;;11.80;99.90;;;;;;5072328;28;20166;-88
2022/04/16 07:52:24;;;;;;;24.95;16.30;;;12.00;99.90;;;;;;5071736;28;20181;-86
2022/04/16 07:54:53;;;;;;;22.55;16.42;;;12.00;99.90;;;;;;5072428;28;20246;-87
2022/04/16 07:57:19;;;;;;;18.75;15.43;;;12.10;99.90;;;;;;5072858;28;20574;-86
2022/04/16 07:59:44;;;;;;;28.45;15.93;;;12.20;99.90;;;;;;5072575;28;20159;-85
2022/04/16 08:02:10;;;;;;;19.67;15.13;;;12.30;99.90;;;;;;5072388;28;20558;-86
2022/04/16 08:04:36;;;;;;;18.27;14.38;;;12.20;99.90;;;;;;5070844;28;20259;-88
2022/04/16 08:07:02;;;;;;;19.77;14.13;;;12.40;99.90;;;;;;5071128;28;20163;-83
2022/04/16 08:09:27;;;;;;;20.35;14.68;;;12.60;99.90;;;;;;5072376;28;20163;-81
2022/04/16 08:11:53;;;;;;;16.67;13.95;;;12.60;99.90;;;;;;5072590;28;20170;-80
2022/04/16 08:14:20;;;;;;;19.40;15.45;;;12.70;99.90;;;;;;5072080;28;20237;-82
2022/04/16 08:16:46;;;;;;;17.77;14.15;;;12.70;99.90;;;;;;5070866;28;20545;-83
2022/04/16 08:19:11;;;;;;;19.38;13.65;;;13.00;99.90;;;;;;5071231;28;20163;-81
2022/04/16 08:21:37;;;;;;;20.67;13.60;;;13.10;99.90;;;;;;5075196;28;20158;-81
2022/04/16 08:24:13;;;;;;;15.68;13.20;;;13.20;99.90;;;;;;5075696;28;20235;-85
2022/04/16 08:26:40;;;;;;;21.00;13.85;;;13.20;99.90;;;;;;5075548;28;20162;-82
2022/04/16 08:29:05;;;;;;;20.23;13.25;;;13.30;99.90;;;;;;5075386;28;20170;-84
2022/04/16 08:31:31;;;;;;;16.13;12.10;;;13.40;99.90;;;;;;5075327;28;20170;-81
2022/04/16 08:33:56;;;;;;;18.50;13.18;;;13.60;99.90;;;;;;5074184;28;20221;-84
2022/04/16 08:36:22;;;;;;;19.23;14.13;;;13.80;99.90;;;;;;5075141;28;20193;-86
2022/04/16 08:38:48;;;;;;;19.70;12.73;;;13.90;99.90;;;;;;5075407;28;20174;-80
2022/04/16 08:41:14;;;;;;;14.43;11.27;;;14.00;99.90;;;;;;5085630;28;20519;-84
2022/04/16 08:43:44;;;;;;;16.45;11.70;;;14.10;99.90;;;;;;5094117;28;20239;-83
2022/04/16 08:46:09;;;;;;;16.98;11.57;;;14.10;99.90;;;;;;5095147;28;20174;-87
2022/04/16 08:48:36;;;;;;;15.13;10.85;;;14.10;99.90;;;;;;5094882;28;20169;-80
2022/04/16 08:51:02;;;;;;;11.35;10.15;;;14.20;99.90;;;;;;5094290;28;20181;-81
2022/04/16 08:53:28;;;;;;;15.15;9.25;;;14.30;99.90;;;;;;5094975;28;20220;-81
2022/04/16 08:55:53;;;;;;;9.63;8.68;;;14.40;99.90;;;;;;5094545;28;20188;-87
2022/04/16 08:58:19;;;;;;;10.00;9.00;;;14.40;99.90;;;;;;5094939;28;20205;-77
2022/04/16 09:00:45;;;;;;;8.75;7.75;;;14.40;99.90;;;;;;5094730;28;20166;-81
2022/04/16 09:03:11;;;;;;;13.68;7.55;;;14.50;99.90;;;;;;5094036;28;20714;-80
2022/04/16 09:05:38;;;;;;;5.50;5.07;;;14.70;99.90;;;;;;5080634;28;20169;-80
2022/04/16 09:08:04;;;;;;;7.50;6.60;;;14.60;99.90;;;;;;5096343;28;20626;-83
2022/04/16 09:10:32;;;;;;;8.10;5.47;;;14.70;99.90;;;;;;5092604;28;20181;-80
2022/04/16 09:12:59;;;;;;;7.28;6.68;;;14.90;99.90;;;;;;5092036;28;20198;-78
2022/04/16 09:15:26;;;;;;;8.23;5.55;;;14.80;99.90;;;;;;5078945;28;20708;-93
2022/04/16 09:18:06;;;;;;;5.63;4.80;;;14.80;99.90;;;;;;5094989;28;20184;-81
2022/04/16 09:20:40;;;;;;;7.13;6.53;;;14.60;99.90;;;;;;5094732;28;20173;-80
2022/04/16 09:23:19;;;;;;;8.73;5.85;;;14.60;99.90;;;;;;5090973;28;20186;-83
2022/04/16 09:25:45;;;;;;;8.73;7.53;;;14.80;99.90;;;;;;5072867;28;20245;-82
2022/04/16 09:28:17;;;;;;;8.35;5.68;;;14.90;99.90;;;;;;5069643;28;20163;-84
2022/04/16 09:30:53;;;;;;;9.27;5.50;;;14.80;99.90;;;;;;5073213;28;20162;-82
2022/04/16 09:33:19;;;;;;;10.88;4.38;;;14.90;99.90;;;;;;5085848;28;20201;-83
2022/04/16 09:35:46;;;;;;;3.88;3.58;;;15.10;99.90;;;;;;5093153;28;20173;-84
2022/04/16 09:38:12;;;;;;;5.10;3.30;;;15.10;99.90;;;;;;5076232;28;20198;-87
2022/04/16 09:40:38;;;;;;;2.88;2.33;;;15.20;99.90;;;;;;5071461;28;20216;-81
2022/04/16 09:43:05;;;;;;;5.40;3.92;;;15.40;99.90;;;;;;5073041;28;20214;-80
2022/04/16 09:45:32;;;;;;;4.60;3.78;;;15.50;99.90;;;;;;5072629;28;20526;-92
2022/04/16 09:47:58;;;;;;;8.25;4.95;;;15.50;99.90;;;;;;5073955;28;20230;-84
2022/04/16 09:50:26;;;;;;;7.22;6.53;;;15.60;99.90;;;;;;5074608;28;20179;-84
2022/04/16 09:52:57;;;;;;;5.40;4.90;;;15.80;99.90;;;;;;5072700;28;20202;-85
2022/04/16 09:55:25;;;;;;;8.63;5.43;;;15.70;99.90;;;;;;5074330;28;20167;-87
2022/04/16 09:58:01;;;;;;;5.80;5.20;;;15.90;99.90;;;;;;5072882;28;20178;-82
2022/04/16 10:00:29;;;;;;;6.10;5.15;;;16.10;99.90;;;;;;5073157;28;20194;-86
2022/04/16 10:02:54;;;;;;;3.90;3.25;;;16.10;99.90;;;;;;5072858;28;20189;-87
2022/04/16 10:05:24;;;;;;;4.03;3.63;;;16.00;99.90;;;;;;5073035;28;20870;-83
2022/04/16 10:07:52;;;;;;;5.05;4.18;;;15.80;99.90;;;;;;5072261;28;20169;-83
2022/04/16 10:10:25;;;;;;;8.68;3.65;;;15.90;99.90;;;;;;5073518;28;20247;-82
2022/04/16 10:13:05;;;;;;;4.18;3.20;;;15.80;99.90;;;;;;5072671;28;20233;-86
2022/04/16 10:15:54;;;;;;;3.10;2.80;;;15.70;99.90;;;;;;5073453;28;20162;-83
2022/04/16 10:18:20;;;;;;;4.90;3.22;;;15.70;99.90;;;;;;5076326;28;20163;-80
2022/04/16 10:21:02;;;;;;;3.88;3.55;;;15.50;99.90;;;;;;5085241;28;20174;-79
2022/04/16 10:23:38;;;;;;;5.43;4.07;;;15.60;99.90;;;;;;5083572;28;20187;-78
2022/04/16 10:26:15;;;;;;;4.90;4.30;;;15.50;99.90;;;;;;5085422;28;20154;-79
2022/04/16 10:28:52;;;;;;;8.00;4.95;;;15.60;99.90;;;;;;5086372;28;20162;-78
2022/04/16 10:31:29;;;;;;;7.57;3.95;;;15.50;99.90;;;;;;5072343;28;20162;-78
2022/04/16 10:34:11;;;;;;;5.25;3.70;;;15.50;99.90;;;;;;5072631;28;20206;-79
2022/04/16 10:36:41;;;;;;;4.60;3.97;;;15.50;99.90;;;;;;5072169;28;20170;-79
2022/04/16 10:39:23;;;;;;;6.03;4.60;;;15.60;99.90;;;;;;5071877;28;20166;-78
2022/04/16 10:41:54;;;;;;;5.63;4.75;;;15.60;99.90;;;;;;5072193;28;20178;-79
2022/04/16 10:44:20;;;;;;;6.30;4.75;;;15.60;99.90;;;;;;5071535;28;20690;-78
2022/04/16 10:46:48;;;;;;;6.78;4.82;;;15.70;99.90;;;;;;5072019;28;20181;-78
2022/04/16 10:49:15;;;;;;;7.28;5.07;;;15.90;99.90;;;;;;5072319;28;20174;-79
2022/04/16 10:51:41;;;;;;;5.78;5.28;;;16.00;99.90;;;;;;5072047;28;20174;-77
2022/04/16 10:54:12;;;;;;;10.10;5.72;;;16.00;99.90;;;;;;5071690;28;20225;-78
2022/04/16 10:56:40;;;;;;;5.38;4.90;;;16.10;99.90;;;;;;5071927;28;20580;-80
2022/04/16 10:59:07;;;;;;;4.72;4.30;;;16.20;99.90;;;;;;5070123;28;20162;-78
2022/04/16 11:01:34;;;;;;;4.63;4.18;;;16.10;99.90;;;;;;5070987;28;20503;-78
2022/04/16 11:04:14;;;;;;;5.80;5.15;;;16.00;99.90;;;;;;5072070;28;20182;-78
2022/04/16 11:06:51;;;;;;;5.35;4.85;;;15.90;99.90;;;;;;5072782;28;20192;-78
2022/04/16 11:09:20;;;;;;;7.32;4.95;;;16.10;99.90;;;;;;5070884;28;20200;-79
2022/04/16 11:11:51;;;;;;;4.63;4.22;;;16.20;99.90;;;;;;5070411;28;20649;-78
2022/04/16 11:14:17;;;;;;;4.55;4.15;;;16.40;99.90;;;;;;5071532;28;20214;-78
2022/04/16 11:16:44;;;;;;;12.43;3.92;;;16.40;99.90;;;;;;5070099;28;20169;-78
2022/04/16 11:19:15;;;;;;;5.38;4.78;;;16.40;99.90;;;;;;5070561;28;20262;-80
2022/04/16 11:21:42;;;;;;;4.22;3.83;;;16.40;99.90;;;;;;5072086;28;20226;-78
2022/04/16 11:24:08;;;;;;;8.65;3.85;;;16.40;99.90;;;;;;5071565;28;20190;-78
2022/04/16 11:34:57;;;;;;;5.80;4.97;;;16.20;99.90;;;;;;5050667;28;20221;-78
2022/04/16 11:37:23;;;;;;;5.78;5.28;;;16.30;99.90;;;;;;5071698;28;20169;-87
2022/04/16 11:40:00;;;;;;;5.28;4.80;;;16.00;99.90;;;;;;5070157;28;20162;-78
2022/04/16 11:42:26;;;;;;;6.80;4.90;;;16.10;99.90;;;;;;5072051;28;20162;-78
2022/04/16 11:44:52;;;;;;;6.47;4.43;;;16.30;99.90;;;;;;5071317;28;20186;-78
2022/04/16 11:47:22;;;;;;;5.68;5.13;;;16.30;99.90;;;;;;5070066;28;20204;-78
2022/04/16 11:50:00;;;;;;;5.82;4.78;;;16.50;99.90;;;;;;5071706;28;20173;-78
2022/04/16 11:52:28;;;;;;;5.75;5.28;;;16.50;99.90;;;;;;5071310;28;20201;-78
2022/04/16 11:55:06;;;;;;;10.75;4.07;;;16.60;99.90;;;;;;5074331;28;20281;-78
2022/04/16 11:57:36;;;;;;;6.03;4.85;;;16.70;99.90;;;;;;5093853;28;20522;-78
2022/04/16 12:00:10;;;;;;;5.55;5.05;;;16.70;99.90;;;;;;5094877;28;20166;-79
2022/04/16 12:02:38;;;;;;;8.10;4.53;;;16.60;99.90;;;;;;5095153;28;20633;-79
2022/04/16 12:05:23;;;;;;;6.78;4.07;;;16.60;99.90;;;;;;5093876;28;20182;-79
2022/04/16 12:07:49;;;;;;;5.10;3.78;;;16.80;99.90;;;;;;5095462;28;20162;-80
2022/04/16 12:10:17;;;;;;;5.63;4.78;;;17.00;99.90;;;;;;5093084;28;20567;-79
2022/04/16 12:12:48;;;;;;;7.28;4.65;;;16.90;99.90;;;;;;5094096;28;20258;-80
2022/04/16 12:15:22;;;;;;;9.60;4.32;;;16.90;99.90;;;;;;5095152;28;20236;-79
2022/04/16 12:17:49;;;;;;;4.43;4.03;;;16.90;99.90;;;;;;5093753;28;20173;-80
2022/04/16 12:20:15;;;;;;;5.50;4.68;;;16.90;99.90;;;;;;5094300;28;20233;-79
2022/04/16 12:22:49;;;;;;;5.65;5.13;;;16.80;99.90;;;;;;5095234;28;20173;-79
2022/04/16 12:25:17;;;;;;;6.03;4.32;;;16.70;99.90;;;;;;5095072;28;20169;-79
2022/04/16 12:27:48;;;;;;;6.95;4.88;;;16.70;99.90;;;;;;5093495;28;20191;-79
2022/04/16 12:30:49;;;;;;;8.02;4.93;;;16.90;99.90;;;;;;5098105;28;20170;-80
2022/04/16 12:33:15;;;;;;;4.93;4.47;;;17.10;99.90;;;;;;5086227;28;20783;-80
2022/04/16 12:35:47;;;;;;;5.85;4.63;;;17.10;99.90;;;;;;5093709;28;20253;-80
2022/04/16 12:38:17;;;;;;;6.00;5.07;;;17.20;99.90;;;;;;5093634;28;20166;-80
2022/04/16 12:40:43;;;;;;;6.10;5.38;;;17.40;99.90;;;;;;5095591;28;20708;-84
2022/04/16 12:43:09;;;;;;;6.65;5.38;;;17.40;99.90;;;;;;5094871;28;20654;-79
2022/04/16 12:45:35;;;;;;;5.88;5.32;;;17.10;99.90;;;;;;5094054;28;20169;-80
2022/04/16 12:48:01;;;;;;;7.63;5.85;;;17.10;99.90;;;;;;5093168;28;20575;-81
2022/04/16 12:50:29;;;;;;;6.35;5.85;;;17.20;99.90;;;;;;5093629;28;20166;-84
2022/04/16 12:52:55;;;;;;;6.72;6.05;;;17.30;99.90;;;;;;5095102;28;20197;-82
2022/04/16 12:55:21;;;;;;;6.38;5.80;;;17.20;99.90;;;;;;5094945;28;20158;-83
2022/04/16 12:57:47;;;;;;;10.82;6.07;;;17.10;99.90;;;;;;5095317;28;20158;-81
2022/04/16 13:00:14;;;;;;;10.48;5.95;;;17.00;99.90;;;;;;5095124;28;20514;-83
2022/04/16 13:02:44;;;;;;;6.28;5.57;;;17.20;99.90;;;;;;5110750;28;20177;-83